Time;durP1;ratioP1;P1;durP2;ratioP2;P2;SDS_P1;SDS_P2;PMS_P1;PMS_P2;Temp;Humidity;BMP_temperature;BMP_pressure;BME280_temperature;BME280_humidity;BME280_pressure;Samples;Min_cycle;Max_cycle;Signal;HPM_P1;HPM_P2
2024/04/02 00:00:54;;;;;;;1.23;1.23;;;;;;;;;;4985237;28;20209;-60
2024/04/02 00:03:21;;;;;;;1.30;1.30;;;;;;;;;;4982669;28;20226;-61
2024/04/02 00:05:47;;;;;;;1.20;1.20;;;;;;;;;;4987392;28;20198;-61
2024/04/02 00:08:14;;;;;;;1.20;1.10;;;;;;;;;;4942881;28;20238;-61
2024/04/02 00:10:41;;;;;;;1.17;1.17;;;;;;;;;;4943904;28;20263;-61
2024/04/02 00:13:08;;;;;;;1.20;1.20;;;;;;;;;;4966022;28;20716;-61
2024/04/02 00:15:34;;;;;;;1.20;1.20;;;;;;;;;;4973701;28;20217;-61
2024/04/02 00:18:02;;;;;;;2.07;1.40;;;;;;;;;;4972689;28;20215;-61
2024/04/02 00:20:28;;;;;;;1.20;1.20;;;;;;;;;;4984517;28;20267;-61
2024/04/02 00:22:55;;;;;;;1.30;1.30;;;;;;;;;;4989869;28;20372;-61
2024/04/02 00:25:21;;;;;;;1.30;1.30;;;;;;;;;;4982388;28;20271;-61
2024/04/02 00:27:48;;;;;;;1.40;1.40;;;;;;;;;;4945569;28;20376;-60
2024/04/02 00:30:14;;;;;;;1.30;1.30;;;;;;;;;;4978766;28;20218;-60
2024/04/02 00:32:42;;;;;;;1.30;1.30;;;;;;;;;;4972980;28;20233;-61
2024/04/02 00:35:08;;;;;;;1.20;1.20;;;;;;;;;;4972504;28;20229;-61
2024/04/02 00:37:35;;;;;;;1.20;1.20;;;;;;;;;;4991974;28;20677;-61
2024/04/02 00:40:01;;;;;;;1.17;1.17;;;;;;;;;;4993765;28;20569;-61
2024/04/02 00:42:28;;;;;;;1.30;1.30;;;;;;;;;;4981375;28;20229;-60
2024/04/02 00:44:55;;;;;;;1.37;1.20;;;;;;;;;;4938437;28;20676;-61
2024/04/02 00:47:22;;;;;;;1.53;1.50;;;;;;;;;;4970245;28;20233;-61
2024/04/02 00:49:48;;;;;;;1.50;1.40;;;;;;;;;;4974717;28;20213;-61
2024/04/02 00:52:15;;;;;;;1.30;1.30;;;;;;;;;;4977918;28;20312;-61
2024/04/02 00:54:41;;;;;;;1.30;1.30;;;;;;;;;;4992693;28;20209;-60
2024/04/02 00:57:09;;;;;;;1.30;1.30;;;;;;;;;;4992757;28;20206;-61
2024/04/02 00:59:35;;;;;;;1.50;1.40;;;;;;;;;;4975847;28;20656;-61
2024/04/02 01:02:03;;;;;;;1.20;1.20;;;;;;;;;;4975884;28;20230;-61
2024/04/02 01:04:29;;;;;;;1.20;1.20;;;;;;;;;;4961135;28;20206;-61
2024/04/02 01:06:56;;;;;;;1.20;1.20;;;;;;;;;;4955980;28;20301;-61
2024/04/02 01:09:22;;;;;;;1.20;1.20;;;;;;;;;;4981920;28;20622;-61
2024/04/02 01:11:49;;;;;;;1.00;1.00;;;;;;;;;;4992497;28;20647;-61
2024/04/02 01:14:15;;;;;;;1.27;1.20;;;;;;;;;;4988655;28;20201;-61
2024/04/02 01:16:43;;;;;;;1.20;1.20;;;;;;;;;;4974495;28;20221;-61
2024/04/02 01:19:09;;;;;;;1.50;1.40;;;;;;;;;;4981713;28;20206;-61
2024/04/02 01:21:36;;;;;;;1.67;1.50;;;;;;;;;;4971836;28;20225;-61
2024/04/02 01:24:02;;;;;;;1.40;1.30;;;;;;;;;;4967041;28;20225;-61
2024/04/02 01:26:29;;;;;;;1.37;1.30;;;;;;;;;;4979053;28;20205;-61
2024/04/02 01:28:58;;;;;;;1.17;1.17;;;;;;;;;;4971487;28;20237;-61
2024/04/02 01:31:25;;;;;;;1.17;1.13;;;;;;;;;;4984317;28;20209;-61
2024/04/02 01:33:51;;;;;;;1.30;1.30;;;;;;;;;;4992483;28;20693;-61
2024/04/02 01:36:18;;;;;;;1.83;1.30;;;;;;;;;;4949813;28;20210;-61
2024/04/02 01:38:44;;;;;;;1.10;1.10;;;;;;;;;;4994768;28;20587;-61
2024/04/02 01:41:11;;;;;;;1.90;1.20;;;;;;;;;;4992280;28;20213;-61
2024/04/02 01:43:37;;;;;;;1.20;1.20;;;;;;;;;;4937749;28;20683;-61
2024/04/02 01:46:04;;;;;;;1.10;1.10;;;;;;;;;;4970080;28;20297;-61
2024/04/02 01:48:31;;;;;;;1.40;1.30;;;;;;;;;;4977047;28;20237;-61
2024/04/02 01:50:58;;;;;;;1.27;1.20;;;;;;;;;;4992191;28;20703;-61
2024/04/02 01:53:24;;;;;;;1.70;1.57;;;;;;;;;;5018583;28;20230;-61
2024/04/02 01:55:51;;;;;;;1.67;1.33;;;;;;;;;;4977502;28;20241;-61
2024/04/02 01:58:17;;;;;;;1.40;1.40;;;;;;;;;;4979887;28;20676;-61
2024/04/02 02:00:44;;;;;;;1.20;1.20;;;;;;;;;;4986292;28;20213;-61
2024/04/02 02:03:10;;;;;;;1.40;1.40;;;;;;;;;;4984612;28;20260;-61
2024/04/02 02:05:37;;;;;;;1.30;1.30;;;;;;;;;;4972375;28;20667;-61
2024/04/02 02:08:03;;;;;;;1.50;1.40;;;;;;;;;;4974471;28;20237;-61
2024/04/02 02:10:31;;;;;;;1.67;1.43;;;;;;;;;;4981521;28;20218;-61
2024/04/02 02:12:57;;;;;;;1.30;1.30;;;;;;;;;;4974336;28;20259;-61
2024/04/02 02:15:24;;;;;;;1.23;1.23;;;;;;;;;;4983108;28;20224;-61
2024/04/02 02:17:50;;;;;;;1.70;1.60;;;;;;;;;;4958253;28;20214;-61
2024/04/02 02:20:17;;;;;;;1.23;1.17;;;;;;;;;;4969735;28;20212;-61
2024/04/02 02:22:43;;;;;;;1.23;1.23;;;;;;;;;;4991111;28;20239;-61
2024/04/02 02:25:11;;;;;;;1.60;1.47;;;;;;;;;;4990882;28;20205;-61
2024/04/02 02:27:37;;;;;;;1.20;1.20;;;;;;;;;;4976768;28;20265;-61
2024/04/02 02:30:04;;;;;;;2.00;1.30;;;;;;;;;;4974081;28;20307;-61
2024/04/02 02:32:31;;;;;;;1.50;1.40;;;;;;;;;;4987927;28;20237;-61
2024/04/02 02:34:58;;;;;;;1.30;1.20;;;;;;;;;;4992393;28;20209;-61
2024/04/02 02:37:24;;;;;;;1.47;1.30;;;;;;;;;;4975657;28;20205;-61
2024/04/02 02:39:51;;;;;;;1.30;1.30;;;;;;;;;;4972560;28;20702;-61
2024/04/02 02:42:18;;;;;;;1.40;1.40;;;;;;;;;;4967359;28;20320;-61
2024/04/02 02:44:45;;;;;;;1.40;1.30;;;;;;;;;;4990050;28;20209;-61
2024/04/02 02:47:11;;;;;;;1.37;1.37;;;;;;;;;;4990741;28;20625;-61
2024/04/02 02:49:38;;;;;;;1.63;1.30;;;;;;;;;;4952665;28;20206;-61
2024/04/02 02:52:04;;;;;;;1.33;1.30;;;;;;;;;;4991354;28;20588;-61
2024/04/02 02:54:31;;;;;;;1.30;1.30;;;;;;;;;;4959695;28;20368;-61
2024/04/02 02:56:57;;;;;;;1.30;1.30;;;;;;;;;;4940762;28;20206;-61
2024/04/02 02:59:25;;;;;;;1.67;1.20;;;;;;;;;;4985666;28;20213;-61
2024/04/02 03:01:51;;;;;;;1.27;1.20;;;;;;;;;;5004324;28;20233;-61
2024/04/02 03:04:18;;;;;;;1.33;1.33;;;;;;;;;;5006476;28;20221;-61
2024/04/02 03:06:44;;;;;;;1.40;1.40;;;;;;;;;;4974039;28;20712;-61
2024/04/02 03:09:11;;;;;;;1.40;1.30;;;;;;;;;;4972808;28;20229;-61
2024/04/02 03:11:37;;;;;;;1.27;1.20;;;;;;;;;;4943290;28;20256;-61
2024/04/02 03:14:04;;;;;;;1.40;1.30;;;;;;;;;;4943779;28;20206;-61
2024/04/02 03:16:30;;;;;;;1.20;1.20;;;;;;;;;;4960363;28;20214;-61
2024/04/02 03:18:57;;;;;;;1.40;1.30;;;;;;;;;;4933684;28;20214;-61
2024/04/02 03:21:23;;;;;;;1.40;1.30;;;;;;;;;;4981633;28;20221;-61
2024/04/02 03:23:51;;;;;;;1.47;1.40;;;;;;;;;;4990245;28;20213;-61
2024/04/02 03:26:17;;;;;;;1.17;1.10;;;;;;;;;;4985908;28;20214;-61
2024/04/02 03:28:44;;;;;;;1.70;1.20;;;;;;;;;;4931295;28;20268;-61
2024/04/02 03:31:10;;;;;;;1.20;1.20;;;;;;;;;;4964732;28;20213;-61
2024/04/02 03:33:37;;;;;;;1.40;1.40;;;;;;;;;;4966292;28;20240;-62
2024/04/02 03:36:03;;;;;;;1.80;1.63;;;;;;;;;;4968593;28;20296;-61
2024/04/02 03:38:31;;;;;;;1.50;1.40;;;;;;;;;;4986308;28;20219;-60
2024/04/02 03:40:58;;;;;;;1.30;1.23;;;;;;;;;;4990080;28;20229;-61
2024/04/02 03:43:25;;;;;;;1.60;1.30;;;;;;;;;;4975665;28;20243;-61
2024/04/02 03:45:51;;;;;;;1.20;1.20;;;;;;;;;;4961726;28;20216;-61
2024/04/02 03:48:18;;;;;;;1.43;1.17;;;;;;;;;;4977461;28;20235;-61
2024/04/02 03:50:45;;;;;;;1.30;1.30;;;;;;;;;;4937554;28;20216;-61
2024/04/02 03:53:12;;;;;;;1.40;1.40;;;;;;;;;;4973200;28;20241;-61
2024/04/02 03:55:38;;;;;;;1.50;1.40;;;;;;;;;;4990163;28;20209;-61
2024/04/02 03:58:05;;;;;;;1.37;1.37;;;;;;;;;;4989979;28;20289;-61
2024/04/02 04:00:31;;;;;;;1.73;1.40;;;;;;;;;;4975645;28;20221;-61
2024/04/02 04:02:58;;;;;;;1.67;1.57;;;;;;;;;;4972931;28;20252;-61
2024/04/02 04:05:24;;;;;;;1.30;1.30;;;;;;;;;;5002173;28;20210;-60
2024/04/02 04:07:52;;;;;;;2.00;1.40;;;;;;;;;;4953459;28;20229;-61
2024/04/02 04:10:18;;;;;;;1.50;1.40;;;;;;;;;;4981024;28;20247;-61
2024/04/02 04:12:45;;;;;;;1.33;1.33;;;;;;;;;;4994261;28;20508;-61
2024/04/02 04:15:11;;;;;;;1.40;1.30;;;;;;;;;;4992551;28;20206;-61
2024/04/02 04:17:38;;;;;;;1.20;1.20;;;;;;;;;;4976383;28;20219;-61
2024/04/02 04:20:04;;;;;;;1.40;1.30;;;;;;;;;;4979989;28;20226;-62
2024/04/02 04:22:32;;;;;;;1.40;1.40;;;;;;;;;;4993623;28;20237;-61
2024/04/02 04:24:58;;;;;;;1.37;1.37;;;;;;;;;;4968198;28;20221;-61
2024/04/02 04:27:28;;;;;;;1.20;1.20;;;;;;;;;;4973334;28;20611;-61
2024/04/02 04:29:54;;;;;;;1.30;1.30;;;;;;;;;;4991820;28;20263;-61
2024/04/02 04:32:21;;;;;;;1.67;1.57;;;;;;;;;;4986270;28;20316;-61
2024/04/02 04:34:47;;;;;;;1.30;1.30;;;;;;;;;;4933794;28;20224;-61
2024/04/02 04:37:14;;;;;;;1.80;1.40;;;;;;;;;;4976177;28;20210;-61
2024/04/02 04:39:41;;;;;;;1.30;1.30;;;;;;;;;;4976187;28;20686;-61
2024/04/02 04:42:08;;;;;;;1.30;1.30;;;;;;;;;;5007369;28;20291;-61
2024/04/02 04:44:34;;;;;;;1.53;1.43;;;;;;;;;;4971558;28;20217;-61
2024/04/02 04:47:01;;;;;;;1.33;1.30;;;;;;;;;;4949428;28;20206;-61
2024/04/02 04:49:28;;;;;;;1.37;1.30;;;;;;;;;;4934368;28;20263;-61
2024/04/02 04:51:55;;;;;;;2.20;1.30;;;;;;;;;;4974649;28;20239;-62
2024/04/02 04:54:21;;;;;;;1.50;1.40;;;;;;;;;;4983169;28;20232;-61
2024/04/02 04:56:48;;;;;;;1.30;1.30;;;;;;;;;;4967692;28;20236;-61
2024/04/02 04:59:14;;;;;;;1.50;1.40;;;;;;;;;;4978199;28;20216;-61
2024/04/02 05:01:41;;;;;;;1.50;1.40;;;;;;;;;;4970774;28;20653;-61
2024/04/02 05:04:07;;;;;;;1.13;1.13;;;;;;;;;;4969305;28;20299;-61
2024/04/02 05:06:38;;;;;;;1.20;1.20;;;;;;;;;;4965593;28;20204;-61
2024/04/02 05:09:04;;;;;;;1.40;1.30;;;;;;;;;;4970544;28;20280;-62
2024/04/02 05:11:31;;;;;;;1.40;1.40;;;;;;;;;;4978903;28;20283;-62
2024/04/02 05:13:57;;;;;;;1.63;1.50;;;;;;;;;;4955074;28;20597;-62
2024/04/02 05:16:27;;;;;;;1.30;1.30;;;;;;;;;;5010062;28;20216;-62
2024/04/02 05:18:53;;;;;;;1.60;1.50;;;;;;;;;;4957639;28;20614;-62
2024/04/02 05:21:20;;;;;;;1.30;1.30;;;;;;;;;;4932146;28;20217;-62
2024/04/02 05:23:46;;;;;;;1.33;1.33;;;;;;;;;;4972978;28;20225;-62
2024/04/02 05:26:14;;;;;;;1.50;1.40;;;;;;;;;;4975013;28;20589;-62
2024/04/02 05:28:40;;;;;;;1.30;1.30;;;;;;;;;;4974508;28;20647;-61
2024/04/02 05:31:09;;;;;;;1.70;1.60;;;;;;;;;;4974923;28;20275;-62
2024/04/02 05:33:35;;;;;;;1.40;1.30;;;;;;;;;;4957255;28;20249;-62
2024/04/02 05:36:02;;;;;;;1.40;1.30;;;;;;;;;;4954597;28;20209;-62
2024/04/02 05:38:28;;;;;;;2.07;1.40;;;;;;;;;;4938865;28;20205;-62
2024/04/02 05:40:56;;;;;;;1.57;1.47;;;;;;;;;;4971511;28;20761;-61
2024/04/02 05:43:24;;;;;;;1.47;1.37;;;;;;;;;;4975693;28;20229;-62
2024/04/02 05:45:51;;;;;;;1.63;1.53;;;;;;;;;;4991818;28;20211;-62
2024/04/02 05:48:17;;;;;;;1.33;1.20;;;;;;;;;;4950137;28;20614;-62
2024/04/02 05:50:44;;;;;;;1.20;1.20;;;;;;;;;;4982630;28;20299;-62
2024/04/02 05:53:10;;;;;;;1.43;1.33;;;;;;;;;;4974529;28;20251;-62
2024/04/02 05:55:38;;;;;;;1.30;1.30;;;;;;;;;;4926465;28;20209;-62
2024/04/02 05:58:04;;;;;;;1.30;1.30;;;;;;;;;;4948279;28;20213;-62
2024/04/02 06:00:31;;;;;;;1.57;1.47;;;;;;;;;;4973387;28;20205;-62
2024/04/02 06:02:57;;;;;;;1.30;1.27;;;;;;;;;;4941135;28;20327;-62
2024/04/02 06:05:24;;;;;;;1.17;1.13;;;;;;;;;;4980494;28;20207;-62
2024/04/02 06:07:54;;;;;;;1.30;1.30;;;;;;;;;;4954698;28;20210;-62
2024/04/02 06:10:21;;;;;;;1.20;1.20;;;;;;;;;;4960349;28;20680;-61
2024/04/02 06:12:47;;;;;;;1.20;1.20;;;;;;;;;;4986972;28;20225;-62
2024/04/02 06:15:14;;;;;;;1.50;1.40;;;;;;;;;;4978748;28;20210;-62
2024/04/02 06:17:41;;;;;;;1.30;1.30;;;;;;;;;;4953600;28;20213;-62
2024/04/02 06:20:08;;;;;;;1.50;1.50;;;;;;;;;;4981592;28;20592;-62
2024/04/02 06:22:35;;;;;;;1.50;1.40;;;;;;;;;;4986281;28;20232;-62
2024/04/02 06:25:02;;;;;;;1.40;1.30;;;;;;;;;;4940589;28;20198;-61
2024/04/02 06:27:28;;;;;;;1.40;1.30;;;;;;;;;;4981525;28;20213;-61
2024/04/02 06:29:55;;;;;;;1.60;1.50;;;;;;;;;;4960294;28;20233;-61
2024/04/02 06:32:21;;;;;;;1.43;1.37;;;;;;;;;;4940212;28;20237;-62
2024/04/02 06:34:49;;;;;;;1.20;1.20;;;;;;;;;;4961342;28;20206;-61
2024/04/02 06:37:15;;;;;;;1.30;1.20;;;;;;;;;;4968489;28;20294;-61
2024/04/02 06:39:42;;;;;;;1.20;1.20;;;;;;;;;;4973892;28;20211;-61
2024/04/02 06:42:09;;;;;;;1.40;1.30;;;;;;;;;;4978931;28;20313;-61
2024/04/02 06:44:36;;;;;;;1.20;1.20;;;;;;;;;;4959108;28;20253;-61
2024/04/02 06:47:02;;;;;;;1.20;1.20;;;;;;;;;;4980741;28;20589;-61
2024/04/02 06:49:29;;;;;;;1.43;1.33;;;;;;;;;;4975076;28;20225;-61
2024/04/02 06:51:56;;;;;;;1.13;1.13;;;;;;;;;;4980131;28;20231;-61
2024/04/02 06:54:23;;;;;;;1.33;1.30;;;;;;;;;;4930050;28;20233;-61
2024/04/02 06:56:49;;;;;;;1.30;1.30;;;;;;;;;;4954039;28;20677;-62
2024/04/02 06:59:16;;;;;;;2.63;1.20;;;;;;;;;;4957876;28;20200;-62
2024/04/02 07:01:42;;;;;;;1.20;1.20;;;;;;;;;;4958848;28;20797;-62
2024/04/02 07:04:09;;;;;;;1.10;1.10;;;;;;;;;;4963673;28;20219;-62
2024/04/02 07:06:35;;;;;;;1.20;1.20;;;;;;;;;;4965146;28;20223;-62
2024/04/02 07:09:03;;;;;;;1.30;1.20;;;;;;;;;;4943440;28;20247;-61
2024/04/02 07:11:29;;;;;;;1.30;1.20;;;;;;;;;;4922665;28;20228;-61
2024/04/02 07:13:56;;;;;;;1.00;1.00;;;;;;;;;;4938315;28;20678;-61
2024/04/02 07:16:22;;;;;;;1.10;1.10;;;;;;;;;;4926662;28;20213;-62
2024/04/02 07:18:49;;;;;;;1.10;1.10;;;;;;;;;;4923462;29;20204;-62
2024/04/02 07:21:16;;;;;;;1.10;1.10;;;;;;;;;;4924132;28;20210;-68
2024/04/02 07:23:43;;;;;;;1.30;1.20;;;;;;;;;;4930058;28;20238;-62
2024/04/02 07:26:09;;;;;;;1.33;1.10;;;;;;;;;;4929082;28;20215;-61
2024/04/02 07:28:36;;;;;;;1.40;1.30;;;;;;;;;;4923123;28;20312;-63
2024/04/02 07:31:02;;;;;;;1.20;1.20;;;;;;;;;;4927470;28;20592;-63
2024/04/02 07:33:29;;;;;;;1.37;1.37;;;;;;;;;;4950584;28;20229;-62
2024/04/02 07:35:55;;;;;;;1.20;1.20;;;;;;;;;;4963497;28;20221;-62
2024/04/02 07:38:22;;;;;;;1.40;1.30;;;;;;;;;;4966748;28;20244;-62
2024/04/02 07:40:49;;;;;;;1.93;1.40;;;;;;;;;;4925951;28;20210;-62
2024/04/02 07:43:16;;;;;;;1.40;1.30;;;;;;;;;;4931884;28;20324;-62
2024/04/02 07:45:42;;;;;;;1.30;1.30;;;;;;;;;;4941043;28;20214;-62
2024/04/02 07:48:09;;;;;;;2.83;1.17;;;;;;;;;;4935486;28;20208;-62
2024/04/02 07:50:35;;;;;;;1.17;1.17;;;;;;;;;;4955555;28;20208;-62
2024/04/02 07:53:02;;;;;;;1.37;1.27;;;;;;;;;;4975895;28;20228;-61
2024/04/02 07:55:28;;;;;;;1.40;1.23;;;;;;;;;;4974344;28;20213;-61
2024/04/02 07:57:55;;;;;;;1.23;1.10;;;;;;;;;;4964286;28;20200;-62
2024/04/02 08:00:22;;;;;;;1.07;1.07;;;;;;;;;;4940398;28;20217;-62
2024/04/02 08:02:49;;;;;;;1.10;1.10;;;;;;;;;;4930965;28;20228;-62
2024/04/02 08:05:15;;;;;;;1.63;1.10;;;;;;;;;;4974957;28;20574;-62
2024/04/02 08:07:42;;;;;;;1.20;1.20;;;;;;;;;;4948848;28;20206;-61
2024/04/02 08:10:08;;;;;;;1.37;1.27;;;;;;;;;;4923266;28;20235;-61
2024/04/02 08:12:35;;;;;;;1.47;1.20;;;;;;;;;;4942987;28;20580;-63
2024/04/02 08:15:01;;;;;;;1.50;1.03;;;;;;;;;;4937895;28;20217;-61
2024/04/02 08:17:28;;;;;;;1.13;1.03;;;;;;;;;;4931096;28;20209;-61
2024/04/02 08:19:55;;;;;;;1.10;1.10;;;;;;;;;;4935053;28;20228;-61
2024/04/02 08:22:22;;;;;;;1.10;1.10;;;;;;;;;;4983652;28;20280;-62
2024/04/02 08:24:48;;;;;;;1.10;1.10;;;;;;;;;;4937939;28;20208;-63
2024/04/02 08:27:15;;;;;;;1.13;1.00;;;;;;;;;;4951453;28;20209;-61
2024/04/02 08:29:41;;;;;;;2.40;1.10;;;;;;;;;;4940080;28;20283;-62
2024/04/02 08:32:08;;;;;;;1.10;1.00;;;;;;;;;;4963787;28;20257;-65
2024/04/02 08:34:34;;;;;;;1.30;1.10;;;;;;;;;;4954520;28;20229;-62
2024/04/02 08:37:02;;;;;;;1.50;1.40;;;;;;;;;;4966870;28;20228;-61
2024/04/02 08:39:28;;;;;;;1.80;1.40;;;;;;;;;;4946329;28;20255;-61
2024/04/02 08:41:55;;;;;;;1.37;1.27;;;;;;;;;;4947223;28;20712;-61
2024/04/02 08:44:21;;;;;;;2.47;1.30;;;;;;;;;;4954026;28;20292;-62
2024/04/02 08:46:48;;;;;;;1.93;1.40;;;;;;;;;;4932990;28;20199;-62
2024/04/02 08:49:14;;;;;;;1.40;1.30;;;;;;;;;;4978265;28;20241;-63
2024/04/02 08:51:41;;;;;;;1.47;1.33;;;;;;;;;;4943217;28;20237;-65
2024/04/02 08:54:09;;;;;;;1.50;1.40;;;;;;;;;;4930613;28;20209;-62
2024/04/02 08:56:35;;;;;;;4.13;1.30;;;;;;;;;;4980640;28;20225;-62
2024/04/02 08:59:02;;;;;;;2.37;1.43;;;;;;;;;;4974910;28;20219;-62
2024/04/02 09:01:28;;;;;;;1.83;1.40;;;;;;;;;;4971322;28;20237;-62
2024/04/02 09:03:56;;;;;;;1.87;1.33;;;;;;;;;;4972075;28;20207;-62
2024/04/02 09:06:22;;;;;;;4.67;1.90;;;;;;;;;;4941308;28;20241;-61
2024/04/02 09:08:49;;;;;;;2.13;1.20;;;;;;;;;;4966946;28;20671;-62
2024/04/02 09:11:15;;;;;;;2.33;1.50;;;;;;;;;;4977463;28;20220;-62
2024/04/02 09:13:42;;;;;;;2.60;1.53;;;;;;;;;;4985596;28;20264;-62
2024/04/02 09:16:10;;;;;;;1.97;1.20;;;;;;;;;;4979875;28;20587;-62
2024/04/02 09:18:40;;;;;;;4.17;2.03;;;;;;;;;;4928859;28;20198;-62
2024/04/02 09:21:06;;;;;;;2.20;1.50;;;;;;;;;;4972992;28;20257;-62
2024/04/02 09:23:33;;;;;;;2.83;1.30;;;;;;;;;;4943485;28;20219;-61
2024/04/02 09:25:59;;;;;;;1.90;1.67;;;;;;;;;;4922126;28;20220;-61
2024/04/02 09:28:26;;;;;;;3.20;1.53;;;;;;;;;;4907945;28;20221;-60
2024/04/02 09:30:53;;;;;;;1.70;1.50;;;;;;;;;;4894768;28;20967;-61
2024/04/02 09:33:20;;;;;;;3.20;1.40;;;;;;;;;;4915231;28;20228;-61
2024/04/02 09:35:46;;;;;;;4.50;1.60;;;;;;;;;;4957751;28;20210;-61
2024/04/02 09:38:14;;;;;;;2.60;1.60;;;;;;;;;;4899376;28;20927;-61
2024/04/02 09:40:41;;;;;;;2.10;1.60;;;;;;;;;;4932752;28;20211;-60
2024/04/02 09:43:08;;;;;;;2.63;1.50;;;;;;;;;;4921572;28;20227;-61
2024/04/02 09:45:34;;;;;;;1.87;1.50;;;;;;;;;;4896884;28;20202;-60
2024/04/02 09:48:01;;;;;;;2.93;1.70;;;;;;;;;;4897378;28;20211;-61
2024/04/02 09:50:27;;;;;;;3.27;1.80;;;;;;;;;;4890780;28;20244;-61
2024/04/02 09:52:54;;;;;;;1.83;1.40;;;;;;;;;;4888693;28;21381;-61
2024/04/02 09:55:20;;;;;;;2.60;1.93;;;;;;;;;;4899675;28;20213;-61
2024/04/02 09:57:48;;;;;;;3.43;1.77;;;;;;;;;;4901582;28;20223;-60
2024/04/02 10:00:14;;;;;;;3.43;1.40;;;;;;;;;;4892972;28;20275;-61
2024/04/02 10:02:41;;;;;;;3.53;1.20;;;;;;;;;;4893483;28;20242;-62
2024/04/02 10:05:08;;;;;;;2.50;1.60;;;;;;;;;;4894281;28;20853;-62
2024/04/02 10:07:36;;;;;;;5.80;2.40;;;;;;;;;;4896152;28;20218;-62
2024/04/02 10:10:05;;;;;;;2.30;1.50;;;;;;;;;;4896403;28;20225;-61
2024/04/02 10:12:34;;;;;;;2.43;1.67;;;;;;;;;;4914869;28;20241;-59
2024/04/02 10:15:00;;;;;;;2.70;1.60;;;;;;;;;;4914846;28;20221;-61
2024/04/02 10:17:27;;;;;;;2.30;1.50;;;;;;;;;;4918008;28;20212;-61
2024/04/02 10:19:53;;;;;;;2.70;1.60;;;;;;;;;;4914898;28;20232;-60
2024/04/02 10:22:20;;;;;;;2.93;1.27;;;;;;;;;;4920038;28;20224;-60
2024/04/02 10:24:47;;;;;;;1.47;1.20;;;;;;;;;;4917633;28;20212;-61
2024/04/02 10:27:15;;;;;;;2.50;1.50;;;;;;;;;;4923114;28;20576;-61
2024/04/02 10:29:41;;;;;;;3.90;1.60;;;;;;;;;;4924239;28;20229;-61
2024/04/02 10:32:08;;;;;;;3.27;1.60;;;;;;;;;;4992707;28;20238;-61
2024/04/02 10:34:34;;;;;;;2.60;1.30;;;;;;;;;;4925276;28;20202;-61
2024/04/02 10:37:02;;;;;;;2.63;1.60;;;;;;;;;;4924668;28;20200;-62
2024/04/02 10:39:31;;;;;;;2.17;1.30;;;;;;;;;;4939789;28;20561;-61
2024/04/02 10:42:02;;;;;;;2.27;1.40;;;;;;;;;;4910385;28;20251;-62
2024/04/02 10:44:29;;;;;;;2.70;1.47;;;;;;;;;;4899063;28;20213;-62
2024/04/02 10:46:56;;;;;;;1.50;1.27;;;;;;;;;;4886017;28;20207;-62
2024/04/02 10:49:22;;;;;;;2.47;1.30;;;;;;;;;;4890054;28;20732;-62
2024/04/02 10:51:49;;;;;;;1.57;1.10;;;;;;;;;;4898190;28;20324;-62
2024/04/02 10:54:15;;;;;;;2.33;1.30;;;;;;;;;;4912464;28;20301;-62
2024/04/02 10:56:42;;;;;;;3.27;1.20;;;;;;;;;;4917562;28;20214;-62
2024/04/02 10:59:11;;;;;;;1.63;1.50;;;;;;;;;;4916759;28;20237;-62
2024/04/02 11:01:38;;;;;;;2.63;1.30;;;;;;;;;;4908955;28;21619;-62
2024/04/02 11:04:04;;;;;;;1.20;1.10;;;;;;;;;;4922622;28;20220;-61
2024/04/02 11:06:31;;;;;;;2.93;1.47;;;;;;;;;;4931168;28;20255;-63
2024/04/02 11:08:58;;;;;;;3.30;1.40;;;;;;;;;;4921202;28;20257;-61
2024/04/02 11:11:25;;;;;;;2.50;1.10;;;;;;;;;;4941274;28;20585;-62
2024/04/02 11:13:51;;;;;;;1.67;1.20;;;;;;;;;;4972450;28;20724;-63
2024/04/02 11:16:18;;;;;;;5.23;1.50;;;;;;;;;;4939125;28;20207;-62
2024/04/02 11:18:44;;;;;;;2.53;1.20;;;;;;;;;;4921637;28;20207;-62
2024/04/02 11:21:11;;;;;;;1.87;1.00;;;;;;;;;;4943927;28;20246;-62
2024/04/02 11:26:23;;;;;;;0.90;0.80;;;;;;;;;;4915293;28;22179;-63
2024/04/02 11:28:51;;;;;;;1.53;0.93;;;;;;;;;;4922385;28;20566;-62
2024/04/02 11:31:17;;;;;;;2.97;1.17;;;;;;;;;;4923058;28;20217;-63
2024/04/02 11:33:44;;;;;;;2.85;1.50;;;;;;;;;;4918159;28;20202;-62
2024/04/02 11:36:11;;;;;;;2.92;0.77;;;;;;;;;;4908947;28;20235;-59
2024/04/02 11:38:38;;;;;;;2.80;1.00;;;;;;;;;;4912359;28;20218;-60
2024/04/02 11:41:07;;;;;;;2.92;1.15;;;;;;;;;;4935788;28;20232;-63
2024/04/02 11:43:34;;;;;;;4.32;1.92;;;;;;;;;;4970172;28;20210;-63
2024/04/02 11:46:01;;;;;;;1.42;1.20;;;;;;;;;;4924716;28;20271;-63
2024/04/02 11:48:28;;;;;;;1.00;0.88;;;;;;;;;;4940659;28;20710;-62
2024/04/02 11:50:55;;;;;;;3.63;1.60;;;;;;;;;;4952547;28;20332;-63
2024/04/02 11:53:21;;;;;;;2.37;1.50;;;14.80;25.80;;;;;;4976300;28;20249;-62
2024/04/02 11:55:49;;;;;;;1.23;1.13;;;14.80;26.80;;;;;;4909714;28;20317;-61
2024/04/02 12:01:08;;;;;;;1.80;1.50;;;14.60;27.50;;;;;;4929125;28;20213;-63
2024/04/02 12:03:35;;;;;;;1.80;1.57;;;14.80;27.30;;;;;;4940625;28;20219;-63
2024/04/02 12:06:01;;;;;;;1.50;1.40;;;;;;;;;;4920112;28;20211;-64
2024/04/02 12:08:28;;;;;;;2.67;1.33;;;;;;;;;;4946339;28;20215;-63
2024/04/02 12:10:55;;;;;;;4.28;0.98;;;;;;;;;;4954924;28;20229;-62
2024/04/02 12:13:22;;;;;;;1.73;0.95;;;;;;;;;;4915349;28;20675;-62
2024/04/02 12:15:48;;;;;;;3.10;0.85;;;;;;;;;;4915880;28;20229;-63
2024/04/02 12:18:15;;;;;;;1.52;1.00;;;;;;;;;;4917275;28;20207;-63
2024/04/02 12:20:43;;;;;;;2.70;0.80;;;;;;;;;;4920652;28;20208;-64
2024/04/02 12:23:10;;;;;;;2.42;1.30;;;;;;;;;;4916776;28;20229;-64
2024/04/02 12:25:36;;;;;;;3.85;1.10;;;;;;;;;;4912163;28;20664;-63
2024/04/02 12:28:03;;;;;;;2.63;0.98;;;;;;;;;;4914687;28;20237;-63
2024/04/02 12:30:29;;;;;;;2.72;1.08;;;;;;;;;;4922995;28;20226;-62
2024/04/02 12:32:56;;;;;;;2.22;1.02;;;;;;;;;;4916563;28;20499;-61
2024/04/02 12:35:22;;;;;;;1.65;0.68;;;;;;;;;;4930005;28;20216;-61
2024/04/02 12:37:49;;;;;;;2.13;0.82;;;;;;;;;;4919983;28;20221;-60
2024/04/02 12:40:15;;;;;;;3.67;1.00;;;;;;;;;;4918955;28;20206;-63
2024/04/02 12:42:42;;;;;;;4.43;1.08;;;;;;;;;;4916682;28;20221;-64
2024/04/02 12:45:09;;;;;;;4.13;1.20;;;;;;;;;;4914368;28;20202;-63
2024/04/02 12:47:37;;;;;;;1.70;0.88;;;;;;;;;;4922456;28;20198;-63
2024/04/02 12:50:03;;;;;;;1.90;1.10;;;;;;;;;;4916011;28;20581;-63
2024/04/02 12:52:33;;;;;;;3.90;1.08;;;;;;;;;;4931112;28;20226;-62
2024/04/02 12:54:59;;;;;;;2.20;1.43;;;;;;;;;;4933759;28;20210;-62
2024/04/02 12:57:26;;;;;;;2.50;1.70;;;;;;;;;;4935060;28;20234;-62
2024/04/02 12:59:52;;;;;;;2.30;1.60;;;;;;;;;;4918610;28;20204;-62
2024/04/02 13:02:19;;;;;;;2.33;1.10;;;;;;;;;;4943207;28;20727;-62
2024/04/02 13:04:45;;;;;;;2.87;1.10;;;;;;;;;;4993468;28;20212;-62
2024/04/02 13:07:13;;;;;;;2.23;1.40;;;;;;;;;;4998293;28;20328;-62
2024/04/02 13:09:39;;;;;;;2.93;1.03;;;;;;;;;;4945340;28;20224;-62
2024/04/02 13:12:06;;;;;;;1.00;1.00;;;;;;;;;;4966032;28;20218;-62
2024/04/02 13:14:32;;;;;;;2.00;1.00;;;;;;;;;;4977155;28;20237;-62
2024/04/02 13:16:59;;;;;;;2.60;1.20;;;;;;;;;;4952472;28;20632;-62
2024/04/02 13:19:25;;;;;;;3.33;1.47;;;;;;;;;;4954188;28;20213;-62
2024/04/02 13:21:52;;;;;;;1.10;1.00;;;;;;;;;;4963990;28;20605;-62
2024/04/02 13:24:18;;;;;;;2.33;1.30;;;;;;;;;;4965611;28;20215;-62
2024/04/02 13:26:46;;;;;;;1.30;1.20;;;;;;;;;;5022255;28;20284;-62
2024/04/02 13:29:13;;;;;;;1.00;0.80;;;;;;;;;;4951067;28;20330;-62
2024/04/02 13:31:41;;;;;;;1.00;1.00;;;;;;;;;;4976287;28;20220;-62
2024/04/02 13:34:07;;;;;;;1.57;1.00;;;;;;;;;;4919611;28;20672;-62
2024/04/02 13:36:34;;;;;;;1.27;0.93;;;;;;;;;;4947123;28;20634;-62
2024/04/02 13:39:00;;;;;;;1.63;1.10;;;;;;;;;;4957529;28;20221;-62
2024/04/02 13:41:27;;;;;;;0.90;0.90;;;;;;;;;;4961115;28;20227;-62
2024/04/02 13:43:54;;;;;;;1.37;1.00;;;;;;;;;;4995082;28;20313;-62
2024/04/02 13:46:21;;;;;;;3.90;1.03;;;;;;;;;;4954598;28;20201;-62
2024/04/02 13:48:47;;;;;;;3.60;1.00;;;;;;;;;;4965313;28;20211;-62
2024/04/02 13:51:14;;;;;;;1.13;1.00;;;;;;;;;;4926399;28;20229;-62
2024/04/02 13:53:40;;;;;;;1.40;1.10;;;;;;;;;;4946526;28;20574;-62
2024/04/02 13:56:07;;;;;;;4.83;2.03;;;;;;;;;;4968260;28;20206;-61
2024/04/02 13:58:33;;;;;;;4.53;1.40;;;;;;;;;;4925669;28;20209;-61
2024/04/02 14:01:01;;;;;;;3.53;1.00;;;;;;;;;;4963761;28;20288;-61
2024/04/02 14:03:27;;;;;;;0.90;0.90;;;;;;;;;;4972487;28;20249;-61
2024/04/02 14:05:54;;;;;;;1.00;1.00;;;;;;;;;;4959971;28;20213;-60
2024/04/02 14:08:20;;;;;;;1.47;1.07;;;;;;;;;;4961411;28;20222;-61
2024/04/02 14:10:47;;;;;;;1.43;1.17;;;;;;;;;;4983787;28;20229;-60
2024/04/02 14:13:16;;;;;;;1.40;1.30;;;;;;;;;;4949438;28;20232;-61
2024/04/02 14:15:43;;;;;;;3.43;1.17;;;;;;;;;;4978836;28;20207;-61
2024/04/02 14:18:09;;;;;;;1.53;1.20;;;;;;;;;;4919282;28;20217;-61
2024/04/02 14:20:36;;;;;;;2.93;1.20;;;;;;;;;;4958639;28;20205;-61
2024/04/02 14:23:02;;;;;;;3.93;1.43;;;;;;;;;;4949832;28;20231;-61
2024/04/02 14:25:30;;;;;;;2.37;1.13;;;;;;;;;;4941500;28;20212;-62
2024/04/02 14:27:56;;;;;;;1.63;0.90;;;;;;;;;;4924186;28;20381;-61
2024/04/02 14:30:23;;;;;;;1.47;1.00;;;;;;;;;;4934380;28;20273;-61
2024/04/02 14:32:49;;;;;;;1.53;1.00;;;;;;;;;;4928355;28;20608;-60
2024/04/02 14:35:16;;;;;;;2.83;1.37;;;;;;;;;;4928950;28;20207;-62
2024/04/02 14:37:42;;;;;;;5.80;1.20;;;;;;;;;;4923451;28;20567;-62
2024/04/02 14:40:09;;;;;;;2.33;1.10;;;;;;;;;;4948035;28;20201;-62
2024/04/02 14:42:35;;;;;;;1.70;1.07;;;;;;;;;;4942904;28;20583;-62